Badger, Kansas
Current Conditions -  °F | °C
As of 2:53 AM on Wednesday 22 Oct 2014 (Local Time) from KJLN Reporting Station
Few Clouds Few Clouds  
Wind Chill: 54°   Ceiling: Unl
Heat Index: 54°   Visibility: 10mi
Dew Point: 46°   Wind: 5mph
Humidity: 75%   Direction: 130°SE
Pressure: 30.13"   Gusts: NA
Location:  37.0394°N, 94.6644°W
Report Text: KJLN 220753Z AUTO 13004KT 10SM FEW036 12/08 A3013 RMK AO2 SLP195 T01220078
Loading
Personal Weather Stations






























Interactive Weather Map
Tropical Storm Tracking
New forecast layout! Learn more

10-Day Weather Forecast

Advertisements
Track Severe Weather on mobile